createdAt,value
2022-10-06T00:01:04.101Z,12.10
2022-10-06T00:03:33.535Z,11.90
2022-10-06T00:06:02.811Z,11.80
2022-10-06T00:08:31.887Z,11.60
2022-10-06T00:10:59.978Z,11.60
2022-10-06T00:13:29.160Z,11.50
2022-10-06T00:15:57.244Z,11.60
2022-10-06T00:18:25.990Z,11.70
2022-10-06T00:21:00.797Z,11.70
2022-10-06T00:23:29.936Z,11.80
2022-10-06T00:25:58.096Z,11.80
2022-10-06T00:28:26.668Z,11.70
2022-10-06T00:30:56.330Z,11.70
2022-10-06T00:33:24.957Z,11.50
2022-10-06T00:36:01.018Z,11.50
2022-10-06T00:38:29.791Z,11.50
2022-10-06T00:40:58.243Z,11.40
2022-10-06T00:43:49.066Z,11.50
2022-10-06T00:46:25.697Z,11.60
2022-10-06T00:48:58.268Z,11.50
2022-10-06T00:51:29.738Z,11.60
2022-10-06T00:53:58.814Z,11.60
2022-10-06T00:56:27.473Z,11.70
2022-10-06T00:58:55.499Z,11.60
2022-10-06T01:01:23.684Z,11.50
2022-10-06T01:03:56.977Z,11.50
2022-10-06T01:06:24.977Z,11.50
2022-10-06T01:08:54.740Z,11.50
2022-10-06T01:11:22.814Z,11.50
2022-10-06T01:13:50.891Z,11.50
2022-10-06T01:16:23.276Z,11.40
2022-10-06T01:18:54.361Z,11.40
2022-10-06T01:21:31.490Z,11.40
2022-10-06T01:24:03.065Z,11.30
2022-10-06T01:26:33.267Z,11.40
2022-10-06T01:29:01.604Z,11.40
2022-10-06T01:31:30.387Z,11.40
2022-10-06T01:33:58.549Z,11.40
2022-10-06T01:36:26.568Z,11.30
2022-10-06T01:38:54.559Z,11.30
2022-10-06T01:41:24.900Z,11.50
2022-10-06T01:43:53.034Z,11.40
2022-10-06T01:46:21.301Z,11.40
2022-10-06T01:48:49.379Z,11.60
2022-10-06T01:51:17.943Z,11.70
2022-10-06T01:53:45.983Z,11.70
2022-10-06T01:56:14.031Z,11.70
2022-10-06T01:58:43.336Z,11.80
2022-10-06T02:01:11.779Z,11.80
2022-10-06T02:03:40.997Z,11.80
2022-10-06T02:06:10.207Z,11.90
2022-10-06T02:08:38.463Z,11.90
2022-10-06T02:11:09.308Z,11.90
2022-10-06T02:13:37.864Z,12.10
2022-10-06T02:16:08.688Z,12.10
2022-10-06T02:18:37.133Z,12.10
2022-10-06T02:21:06.054Z,12.00
2022-10-06T02:23:34.660Z,11.90
2022-10-06T02:26:03.508Z,11.80
2022-10-06T02:28:32.461Z,11.70
2022-10-06T02:31:04.783Z,11.80
2022-10-06T02:33:34.675Z,11.80
2022-10-06T02:36:02.745Z,11.80
2022-10-06T02:38:32.481Z,11.70
2022-10-06T02:41:01.600Z,11.60
2022-10-06T02:43:31.678Z,11.60
2022-10-06T02:46:01.564Z,11.50
2022-10-06T02:48:31.246Z,11.50
2022-10-06T02:51:02.455Z,11.60
2022-10-06T02:53:31.043Z,11.70
2022-10-06T02:56:00.677Z,11.60
2022-10-06T02:58:30.101Z,11.50
2022-10-06T03:01:02.862Z,11.50
2022-10-06T03:03:31.372Z,11.40
2022-10-06T03:06:05.721Z,11.40
2022-10-06T03:08:34.482Z,11.50
2022-10-06T03:11:03.500Z,11.30
2022-10-06T03:13:32.042Z,11.30
2022-10-06T03:16:00.152Z,11.30
2022-10-06T03:18:30.430Z,11.50
2022-10-06T03:21:03.169Z,11.50
2022-10-06T03:23:31.272Z,11.60
2022-10-06T03:25:59.496Z,11.60
2022-10-06T03:28:28.493Z,11.60
2022-10-06T03:31:03.707Z,11.50
2022-10-06T03:33:32.030Z,11.50
2022-10-06T03:36:01.396Z,11.40
2022-10-06T03:38:32.217Z,11.50
2022-10-06T03:41:04.521Z,11.50
2022-10-06T03:43:32.574Z,11.60
2022-10-06T03:46:01.843Z,11.60
2022-10-06T03:48:30.808Z,11.60
2022-10-06T03:51:01.173Z,11.60
2022-10-06T03:53:31.700Z,11.60
2022-10-06T03:56:04.331Z,11.60
2022-10-06T03:58:34.487Z,11.50
2022-10-06T04:01:04.853Z,11.40
2022-10-06T04:03:33.453Z,11.40
2022-10-06T04:06:03.011Z,11.50
2022-10-06T04:08:34.105Z,11.70
2022-10-06T04:11:09.478Z,11.90
2022-10-06T04:13:37.930Z,12.10
2022-10-06T04:16:16.984Z,12.30
2022-10-06T04:18:46.461Z,12.30
2022-10-06T04:21:14.928Z,12.30
2022-10-06T04:23:44.503Z,12.30
2022-10-06T04:26:14.316Z,12.40
2022-10-06T04:28:45.101Z,12.40
2022-10-06T04:31:17.007Z,12.40
2022-10-06T04:33:46.829Z,12.30
2022-10-06T04:36:16.783Z,12.10
2022-10-06T04:38:46.180Z,12.00
2022-10-06T04:41:16.816Z,12.00
2022-10-06T04:43:46.602Z,11.90
2022-10-06T04:46:41.063Z,12.00
2022-10-06T04:49:03.607Z,11.90
2022-10-06T04:51:31.619Z,12.00
2022-10-06T04:54:01.135Z,12.20
2022-10-06T04:56:30.716Z,12.30
2022-10-06T04:58:59.634Z,12.40
2022-10-06T05:01:30.732Z,12.50
2022-10-06T05:04:01.341Z,12.50
2022-10-06T05:06:30.633Z,12.60
2022-10-06T05:09:02.503Z,12.70
2022-10-06T05:11:31.776Z,12.80
2022-10-06T05:14:00.186Z,12.90
2022-10-06T05:16:30.355Z,13.00
2022-10-06T05:18:59.109Z,13.10
2022-10-06T05:21:32.381Z,13.20
2022-10-06T05:24:04.055Z,13.40
2022-10-06T05:26:36.742Z,13.50
2022-10-06T05:29:06.668Z,13.60
2022-10-06T05:31:43.014Z,13.70
2022-10-06T05:34:20.472Z,13.80
2022-10-06T05:36:48.503Z,13.70
2022-10-06T05:39:17.873Z,13.70
2022-10-06T05:41:46.071Z,13.70
2022-10-06T05:44:14.620Z,13.70
2022-10-06T05:46:42.654Z,13.80
2022-10-06T05:49:12.925Z,13.70
2022-10-06T05:51:41.282Z,13.80
2022-10-06T05:54:09.424Z,13.80
2022-10-06T05:56:39.773Z,13.90
2022-10-06T05:59:08.047Z,13.90
2022-10-06T06:01:38.022Z,14.00
2022-10-06T06:04:08.499Z,14.10
2022-10-06T06:06:38.112Z,14.10
2022-10-06T06:09:08.144Z,14.20
2022-10-06T06:11:39.863Z,14.30
2022-10-06T06:14:09.476Z,14.50
2022-10-06T06:16:39.050Z,14.50
2022-10-06T06:19:08.695Z,14.50
2022-10-06T06:21:37.095Z,14.60
2022-10-06T06:24:06.159Z,14.60
2022-10-06T06:26:36.252Z,14.70
2022-10-06T06:29:06.632Z,14.90
2022-10-06T06:31:36.350Z,14.90
2022-10-06T06:34:06.583Z,14.90
2022-10-06T06:36:36.900Z,14.90
2022-10-06T06:39:06.787Z,15.00
2022-10-06T06:41:37.796Z,15.00
2022-10-06T06:44:08.415Z,15.10
2022-10-06T06:46:36.569Z,15.20
2022-10-06T06:49:06.106Z,15.20
2022-10-06T06:51:35.091Z,15.40
2022-10-06T06:54:03.286Z,15.50
2022-10-06T06:56:34.808Z,15.60
2022-10-06T06:59:03.577Z,15.70
2022-10-06T07:01:33.063Z,15.80
2022-10-06T07:04:01.389Z,16.00
2022-10-06T07:06:31.123Z,16.10
2022-10-06T07:09:00.401Z,16.30
2022-10-06T07:11:30.629Z,16.40
2022-10-06T07:14:01.416Z,16.50
2022-10-06T07:16:48.231Z,16.70
2022-10-06T07:19:36.043Z,16.80
2022-10-06T07:22:29.632Z,16.70
2022-10-06T07:25:08.532Z,16.90
2022-10-06T07:27:39.748Z,17.00
2022-10-06T07:30:09.854Z,17.20
2022-10-06T07:32:38.177Z,17.20
2022-10-06T07:35:08.651Z,17.00
2022-10-06T07:37:37.075Z,17.00
2022-10-06T07:40:07.106Z,17.00
2022-10-06T07:42:48.051Z,17.10
2022-10-06T07:45:34.910Z,17.20
2022-10-06T07:48:03.781Z,17.40
2022-10-06T07:50:33.489Z,17.40
2022-10-06T07:53:04.971Z,17.50
2022-10-06T07:55:33.207Z,17.60
2022-10-06T07:58:01.266Z,17.70
2022-10-06T08:00:29.350Z,18.00
2022-10-06T08:02:57.497Z,18.00
2022-10-06T08:05:25.683Z,17.80
2022-10-06T08:07:56.447Z,18.00
2022-10-06T08:10:24.458Z,17.90
2022-10-06T08:12:52.490Z,18.00
2022-10-06T08:15:20.747Z,18.00
2022-10-06T08:17:48.855Z,17.90
2022-10-06T08:20:18.323Z,17.80
2022-10-06T08:22:48.804Z,17.60
2022-10-06T08:25:18.336Z,17.50
2022-10-06T08:27:51.303Z,17.60
2022-10-06T08:30:23.926Z,17.60
2022-10-06T08:32:51.858Z,17.80
2022-10-06T08:35:21.388Z,17.90
2022-10-06T08:37:50.193Z,18.10
2022-10-06T08:40:19.582Z,17.90
2022-10-06T08:42:51.132Z,17.80
2022-10-06T08:45:24.299Z,17.80
2022-10-06T08:48:00.826Z,17.90
2022-10-06T08:50:32.974Z,17.80
2022-10-06T08:53:07.168Z,17.80
2022-10-06T08:55:43.126Z,17.80
2022-10-06T08:58:30.416Z,17.80
2022-10-06T09:01:06.764Z,17.50
2022-10-06T09:03:35.341Z,17.50
2022-10-06T09:06:13.279Z,17.80
2022-10-06T09:08:50.901Z,17.70
2022-10-06T09:11:43.081Z,17.90
2022-10-06T09:14:17.861Z,17.80
2022-10-06T09:16:51.311Z,17.90
2022-10-06T09:19:27.824Z,18.10
2022-10-06T09:22:00.086Z,18.10
2022-10-06T09:24:34.548Z,18.10
2022-10-06T09:27:17.456Z,18.10
2022-10-06T09:29:48.414Z,18.00
2022-10-06T09:32:17.087Z,18.40
2022-10-06T09:34:50.185Z,18.70
2022-10-06T09:37:18.741Z,19.10
2022-10-06T09:39:49.551Z,19.50
2022-10-06T09:42:22.720Z,19.90
2022-10-06T09:44:59.484Z,20.30
2022-10-06T09:47:45.055Z,20.40
2022-10-06T09:50:24.199Z,20.40
2022-10-06T09:53:13.921Z,20.00
2022-10-06T09:55:46.815Z,20.30
2022-10-06T09:58:23.436Z,20.00
2022-10-06T10:00:55.929Z,20.40
2022-10-06T10:03:26.760Z,20.00
2022-10-06T10:05:56.003Z,19.90
2022-10-06T10:08:25.851Z,19.80
2022-10-06T10:11:46.382Z,19.70
2022-10-06T10:14:20.711Z,19.40
2022-10-06T10:16:53.079Z,19.30
2022-10-06T10:19:28.998Z,19.00
2022-10-06T10:21:57.535Z,19.10
2022-10-06T10:24:48.414Z,19.10
2022-10-06T10:27:21.891Z,18.90
2022-10-06T10:30:02.806Z,18.70
2022-10-06T10:32:46.145Z,18.60
2022-10-06T10:35:21.430Z,19.00
2022-10-06T10:37:53.223Z,19.40
2022-10-06T10:40:38.372Z,19.50
2022-10-06T10:43:13.684Z,19.70
2022-10-06T10:45:47.769Z,19.70
2022-10-06T10:48:22.888Z,19.70
2022-10-06T10:50:58.320Z,19.90
2022-10-06T10:53:32.635Z,20.30
2022-10-06T10:56:03.337Z,20.10
2022-10-06T10:58:35.429Z,19.50
2022-10-06T11:01:15.900Z,19.10
2022-10-06T11:03:56.502Z,19.20
2022-10-06T11:06:58.089Z,19.10
2022-10-06T11:09:31.211Z,19.30
2022-10-06T11:12:15.211Z,19.40
2022-10-06T11:14:58.038Z,20.10
2022-10-06T11:17:44.403Z,21.20
2022-10-06T11:20:27.832Z,22.00
2022-10-06T11:23:01.430Z,22.30
2022-10-06T11:25:37.557Z,22.40
2022-10-06T11:28:17.213Z,22.10
2022-10-06T11:30:59.550Z,21.50
2022-10-06T11:33:33.184Z,21.10
2022-10-06T11:36:03.841Z,21.50
2022-10-06T11:38:40.354Z,21.20
2022-10-06T11:41:14.271Z,21.80
2022-10-06T11:43:50.050Z,22.10
2022-10-06T11:46:35.581Z,22.70
2022-10-06T11:49:48.207Z,22.80
2022-10-06T11:52:56.302Z,22.60
2022-10-06T11:55:26.495Z,23.10
2022-10-06T11:58:23.397Z,23.40
2022-10-06T12:00:55.853Z,23.80
2022-10-06T12:03:50.573Z,23.20
2022-10-06T12:07:06.635Z,23.50
2022-10-06T12:09:51.712Z,23.80
2022-10-06T12:13:39.140Z,24.00
2022-10-06T12:19:06.716Z,23.40
2022-10-06T12:21:47.886Z,22.00
2022-10-06T12:24:43.686Z,21.60
2022-10-06T12:27:34.563Z,20.80
2022-10-06T12:30:06.640Z,20.30
2022-10-06T12:32:50.341Z,20.40
2022-10-06T12:35:28.833Z,20.60
2022-10-06T12:37:58.524Z,20.10
2022-10-06T12:40:52.522Z,19.80
2022-10-06T12:43:35.199Z,19.60
2022-10-06T12:46:07.686Z,19.50
2022-10-06T12:48:41.392Z,19.60
2022-10-06T12:51:23.601Z,19.50
2022-10-06T12:53:57.855Z,19.70
2022-10-06T12:56:31.970Z,20.10
2022-10-06T12:59:19.864Z,19.80
2022-10-06T13:01:50.268Z,19.50
2022-10-06T13:04:40.065Z,19.60
2022-10-06T13:07:16.703Z,19.40
2022-10-06T13:09:45.658Z,19.60
2022-10-06T13:12:30.598Z,19.70
2022-10-06T13:15:23.312Z,19.60
2022-10-06T13:17:53.951Z,19.60
2022-10-06T13:20:27.885Z,19.80
2022-10-06T13:23:00.925Z,19.90
2022-10-06T13:25:40.979Z,20.00
2022-10-06T13:28:26.494Z,20.50
2022-10-06T13:30:56.358Z,20.70
2022-10-06T13:33:27.008Z,20.20
2022-10-06T13:35:56.005Z,19.90
2022-10-06T13:38:24.140Z,19.60
2022-10-06T13:41:17.974Z,19.70
2022-10-06T13:43:50.447Z,19.90
2022-10-06T13:46:22.775Z,19.70
2022-10-06T13:48:54.016Z,19.80
2022-10-06T13:51:25.696Z,20.00
2022-10-06T13:53:54.207Z,19.80
2022-10-06T13:56:35.346Z,19.80
2022-10-06T13:59:31.477Z,19.80
2022-10-06T14:02:02.557Z,19.60
2022-10-06T14:04:34.600Z,19.40
2022-10-06T14:07:05.671Z,19.20
2022-10-06T14:09:35.307Z,19.00
2022-10-06T14:12:06.231Z,18.80
2022-10-06T14:14:35.731Z,18.90
2022-10-06T14:17:04.151Z,18.90
2022-10-06T14:19:38.834Z,18.90
2022-10-06T14:22:27.529Z,18.90
2022-10-06T14:24:58.736Z,18.70
2022-10-06T14:27:26.981Z,18.50
2022-10-06T14:29:57.354Z,18.60
2022-10-06T14:32:25.642Z,18.70
2022-10-06T14:34:53.770Z,18.60
2022-10-06T14:37:21.796Z,18.60
2022-10-06T14:39:52.594Z,18.60
2022-10-06T14:42:24.310Z,18.70
2022-10-06T14:44:52.427Z,18.70
2022-10-06T14:47:24.806Z,18.80
2022-10-06T14:49:52.875Z,18.80
2022-10-06T14:52:21.496Z,18.80
2022-10-06T14:54:51.880Z,18.60
2022-10-06T14:57:20.595Z,18.50
2022-10-06T14:59:48.680Z,18.50
2022-10-06T15:02:20.199Z,18.50
2022-10-06T15:04:49.669Z,18.50
2022-10-06T15:07:37.896Z,18.50
2022-10-06T15:10:06.971Z,18.50
2022-10-06T15:12:34.959Z,18.50
2022-10-06T15:15:04.372Z,18.40
2022-10-06T15:17:32.392Z,18.30
2022-10-06T15:20:01.777Z,18.20
2022-10-06T15:22:31.216Z,18.10
2022-10-06T15:24:59.420Z,18.00
2022-10-06T15:27:44.784Z,17.80
2022-10-06T15:30:13.467Z,17.80
2022-10-06T15:32:41.467Z,17.80
2022-10-06T15:35:11.109Z,17.90
2022-10-06T15:37:41.082Z,18.00
2022-10-06T15:40:10.034Z,18.00
2022-10-06T15:42:38.641Z,18.20
2022-10-06T15:45:07.945Z,18.30
2022-10-06T15:47:36.016Z,18.20
2022-10-06T15:50:04.591Z,18.10
2022-10-06T15:52:34.590Z,18.10
2022-10-06T15:55:02.571Z,18.00
2022-10-06T15:57:31.478Z,17.80
2022-10-06T15:59:59.520Z,17.60
2022-10-06T16:02:34.976Z,17.50
2022-10-06T16:05:45.198Z,17.50
2022-10-06T16:08:14.556Z,17.50
2022-10-06T16:10:42.601Z,17.30
2022-10-06T16:13:10.780Z,17.20
2022-10-06T16:15:38.831Z,17.20
2022-10-06T16:18:07.002Z,17.10
2022-10-06T16:20:35.048Z,17.00
2022-10-06T16:23:03.088Z,16.90
2022-10-06T16:25:32.408Z,16.80
2022-10-06T16:28:00.664Z,16.70
2022-10-06T16:30:28.634Z,16.60
2022-10-06T16:32:56.667Z,16.50
2022-10-06T16:35:24.769Z,16.40
2022-10-06T16:37:52.848Z,16.30
2022-10-06T16:40:22.973Z,16.30
2022-10-06T16:42:52.654Z,16.20
2022-10-06T16:45:20.619Z,16.20
2022-10-06T16:47:48.594Z,16.10
2022-10-06T16:50:16.710Z,16.10
2022-10-06T16:52:44.806Z,16.00
2022-10-06T16:55:12.871Z,16.10
2022-10-06T16:57:41.007Z,16.10
2022-10-06T17:00:12.439Z,16.10
2022-10-06T17:02:41.349Z,16.10
2022-10-06T17:05:10.029Z,16.20
2022-10-06T17:07:38.066Z,16.20
2022-10-06T17:10:21.399Z,16.20
2022-10-06T17:12:49.532Z,16.10
2022-10-06T17:15:19.135Z,16.10
2022-10-06T17:17:47.843Z,16.20
2022-10-06T17:20:16.562Z,16.20
2022-10-06T17:22:44.546Z,16.20
2022-10-06T17:25:14.073Z,16.20
2022-10-06T17:27:42.255Z,16.20
2022-10-06T17:30:11.326Z,16.30
2022-10-06T17:32:41.268Z,16.20
2022-10-06T17:35:09.597Z,16.20
2022-10-06T17:37:40.365Z,16.30
2022-10-06T17:40:09.147Z,16.30
2022-10-06T17:42:37.622Z,16.30
2022-10-06T17:45:06.802Z,16.20
2022-10-06T17:47:34.828Z,16.20
2022-10-06T17:50:04.648Z,16.20
2022-10-06T17:52:32.907Z,16.20
2022-10-06T17:55:00.888Z,16.10
2022-10-06T17:57:30.439Z,16.20
2022-10-06T17:59:58.950Z,16.30
2022-10-06T18:02:27.837Z,16.30
2022-10-06T18:04:55.993Z,16.30
2022-10-06T18:07:25.602Z,16.30
2022-10-06T18:10:07.500Z,16.20
2022-10-06T18:12:38.703Z,16.30
2022-10-06T18:15:08.946Z,16.30
2022-10-06T18:17:36.945Z,16.30
2022-10-06T18:20:06.345Z,16.20
2022-10-06T18:22:35.710Z,16.10
2022-10-06T18:25:04.351Z,16.00
2022-10-06T18:27:33.433Z,15.90
2022-10-06T18:30:01.492Z,15.90
2022-10-06T18:38:08.163Z,15.90
2022-10-06T18:40:36.137Z,15.70
2022-10-06T18:43:04.110Z,15.60
2022-10-06T18:45:49.931Z,15.50
2022-10-06T18:48:37.617Z,15.30
2022-10-06T18:51:06.269Z,15.10
2022-10-06T18:53:36.348Z,15.10
2022-10-06T18:56:05.109Z,15.00
2022-10-06T18:58:33.162Z,14.90
2022-10-06T19:01:05.196Z,14.90
2022-10-06T19:03:33.787Z,14.70
2022-10-06T19:06:01.784Z,14.60
2022-10-06T19:08:30.082Z,14.50
2022-10-06T19:11:22.380Z,14.40
2022-10-06T19:13:52.129Z,14.40
2022-10-06T19:16:20.736Z,14.40
2022-10-06T19:18:48.716Z,14.40
2022-10-06T19:21:16.744Z,14.30
2022-10-06T19:23:44.902Z,14.40
2022-10-06T19:26:14.427Z,14.50
2022-10-06T19:28:42.443Z,14.60
2022-10-06T19:31:14.951Z,14.70
2022-10-06T19:33:43.289Z,14.80
2022-10-06T19:36:11.495Z,14.80
2022-10-06T19:38:40.389Z,14.70
2022-10-06T19:41:26.334Z,14.80
2022-10-06T19:43:55.606Z,14.70
2022-10-06T19:46:23.559Z,14.70
2022-10-06T19:48:56.487Z,14.60
2022-10-06T19:51:25.142Z,14.40
2022-10-06T19:53:53.082Z,14.50
2022-10-06T19:56:23.249Z,14.50
2022-10-06T19:58:51.918Z,14.40
2022-10-06T20:01:21.370Z,14.20
2022-10-06T20:03:49.474Z,14.10
2022-10-06T20:06:17.929Z,14.10
2022-10-06T20:08:45.997Z,14.00
2022-10-06T20:11:16.467Z,14.00
2022-10-06T20:13:45.855Z,14.00
2022-10-06T20:16:17.292Z,14.10
2022-10-06T20:18:50.540Z,13.90
2022-10-06T20:21:20.764Z,13.80
2022-10-06T20:23:49.262Z,13.70
2022-10-06T20:26:19.730Z,13.60
2022-10-06T20:28:48.792Z,13.90
2022-10-06T20:31:19.252Z,14.00
2022-10-06T20:33:50.329Z,14.00
2022-10-06T20:36:18.539Z,14.10
2022-10-06T20:39:16.226Z,14.10
2022-10-06T20:41:45.678Z,14.20
2022-10-06T20:44:14.266Z,14.10
2022-10-06T20:46:42.375Z,14.10
2022-10-06T20:49:16.923Z,14.10
2022-10-06T20:51:49.839Z,14.10
2022-10-06T20:54:19.004Z,14.10
2022-10-06T20:56:50.077Z,14.10
2022-10-06T20:59:19.357Z,14.10
2022-10-06T21:01:48.444Z,14.20
2022-10-06T21:04:18.643Z,14.10
2022-10-06T21:06:47.029Z,14.00
2022-10-06T21:09:17.603Z,14.00
2022-10-06T21:11:46.317Z,14.10
2022-10-06T21:14:15.663Z,14.20
2022-10-06T21:16:45.812Z,14.20
2022-10-06T21:19:15.787Z,14.20
2022-10-06T21:21:51.830Z,14.30
2022-10-06T21:24:20.444Z,14.30
2022-10-06T21:26:49.296Z,14.20
2022-10-06T21:29:17.504Z,14.10
2022-10-06T21:31:46.363Z,13.90
2022-10-06T21:34:15.397Z,13.90
2022-10-06T21:36:44.935Z,14.00
2022-10-06T21:39:14.228Z,13.90
2022-10-06T21:41:42.514Z,14.00
2022-10-06T21:44:12.993Z,14.00
2022-10-06T21:46:42.986Z,13.90
2022-10-06T21:49:12.887Z,13.80
2022-10-06T21:51:42.223Z,13.90
2022-10-06T21:54:11.958Z,13.90
2022-10-06T21:56:43.549Z,13.90
2022-10-06T21:59:12.479Z,13.90
2022-10-06T22:01:42.990Z,13.80
2022-10-06T22:04:12.760Z,13.70
2022-10-06T22:06:41.306Z,13.70
2022-10-06T22:09:14.352Z,13.70
2022-10-06T22:11:51.354Z,13.60
2022-10-06T22:14:20.434Z,13.70
2022-10-06T22:16:49.730Z,13.60
2022-10-06T22:19:18.442Z,13.50
2022-10-06T22:21:47.958Z,13.50
2022-10-06T22:24:19.142Z,13.40
2022-10-06T22:26:47.576Z,13.40
2022-10-06T22:29:17.559Z,13.30
2022-10-06T22:31:47.390Z,13.30
2022-10-06T22:34:18.431Z,13.30
2022-10-06T22:36:46.700Z,13.20
2022-10-06T22:39:14.761Z,13.20
2022-10-06T22:41:44.229Z,13.10
2022-10-06T22:44:13.422Z,13.30
2022-10-06T22:46:41.741Z,13.40
2022-10-06T22:49:09.882Z,13.20
2022-10-06T22:51:37.964Z,13.10
2022-10-06T22:54:06.243Z,13.20
2022-10-06T22:56:35.105Z,13.30
2022-10-06T22:59:04.713Z,13.30
2022-10-06T23:01:32.850Z,13.30
2022-10-06T23:04:00.908Z,13.20
2022-10-06T23:06:31.334Z,13.20
2022-10-06T23:09:00.314Z,13.10
2022-10-06T23:11:28.931Z,13.10
2022-10-06T23:13:57.138Z,13.10
2022-10-06T23:16:26.679Z,13.20
2022-10-06T23:18:57.184Z,13.20
2022-10-06T23:21:27.705Z,13.10
2022-10-06T23:23:57.645Z,13.00
2022-10-06T23:26:26.136Z,13.00
2022-10-06T23:28:58.906Z,13.00
2022-10-06T23:31:28.903Z,13.00
2022-10-06T23:33:57.123Z,13.00
2022-10-06T23:36:26.120Z,13.20
2022-10-06T23:38:54.396Z,13.30
2022-10-06T23:41:22.486Z,13.40
2022-10-06T23:43:50.642Z,13.40
2022-10-06T23:46:18.958Z,13.50
2022-10-06T23:48:48.416Z,13.50
2022-10-06T23:51:17.033Z,13.60
2022-10-06T23:53:45.532Z,13.60
2022-10-06T23:56:13.856Z,13.50
2022-10-06T23:58:42.813Z,13.50
